createdAt,value
2022-12-22T00:01:17.110Z,32.27
2022-12-22T00:04:38.646Z,32.90
2022-12-22T00:07:58.890Z,28.03
2022-12-22T00:11:19.575Z,30.43
2022-12-22T00:14:39.792Z,31.13
2022-12-22T00:18:00.053Z,24.70
2022-12-22T00:21:21.793Z,25.53
2022-12-22T00:24:42.196Z,24.30
2022-12-22T00:28:02.374Z,27.60
2022-12-22T00:31:22.776Z,29.07
2022-12-22T00:34:43.117Z,26.10
2022-12-22T00:38:04.555Z,23.20
2022-12-22T00:41:25.524Z,30.77
2022-12-22T00:44:45.827Z,30.07
2022-12-22T00:48:05.986Z,23.83
2022-12-22T00:51:26.785Z,32.20
2022-12-22T00:54:48.228Z,28.13
2022-12-22T00:58:08.531Z,30.00
2022-12-22T01:01:29.499Z,28.90
2022-12-22T01:04:49.689Z,28.60
2022-12-22T01:08:09.945Z,27.80
2022-12-22T01:11:31.523Z,26.40
2022-12-22T01:14:51.805Z,25.37
2022-12-22T01:18:12.150Z,29.93
2022-12-22T01:21:39.905Z,26.20
2022-12-22T01:25:00.198Z,30.47
2022-12-22T01:28:22.789Z,25.97
2022-12-22T01:31:49.512Z,24.23
2022-12-22T01:35:09.685Z,24.50
2022-12-22T01:38:29.927Z,27.10
2022-12-22T01:41:50.102Z,22.13
2022-12-22T01:45:11.615Z,21.57
2022-12-22T01:48:33.879Z,23.37
2022-12-22T01:51:54.228Z,21.33
2022-12-22T01:55:16.402Z,24.67
2022-12-22T01:58:42.774Z,23.27
2022-12-22T02:02:04.411Z,25.10
2022-12-22T02:05:28.610Z,22.93
2022-12-22T02:08:54.540Z,21.93
2022-12-22T02:12:23.484Z,23.93
2022-12-22T02:15:51.301Z,20.30
2022-12-22T02:19:18.947Z,22.30
2022-12-22T02:22:46.760Z,23.20
2022-12-22T02:26:13.034Z,18.90
2022-12-22T02:29:38.356Z,23.07
2022-12-22T02:33:09.251Z,21.33
2022-12-22T02:36:37.139Z,20.60
2022-12-22T02:40:07.444Z,19.17
2022-12-22T02:43:36.727Z,20.53
2022-12-22T02:47:04.594Z,19.27
2022-12-22T02:50:35.327Z,16.87
2022-12-22T02:53:57.609Z,19.43
2022-12-22T02:57:20.489Z,17.70
2022-12-22T03:00:40.767Z,16.10
2022-12-22T03:04:02.486Z,20.47
2022-12-22T03:07:22.683Z,16.27
2022-12-22T03:10:42.968Z,20.23
2022-12-22T03:14:03.215Z,18.63
2022-12-22T03:17:23.440Z,16.00
2022-12-22T03:20:45.257Z,17.53
2022-12-22T03:24:05.513Z,15.80
2022-12-22T03:27:08.133Z,13.93
2022-12-22T03:30:11.267Z,14.73
2022-12-22T03:33:13.885Z,15.07
2022-12-22T03:36:17.868Z,13.87
2022-12-22T03:39:20.508Z,14.50
2022-12-22T03:42:40.860Z,13.70
2022-12-22T03:46:01.187Z,18.13
2022-12-22T03:49:11.394Z,16.33
2022-12-22T03:52:15.340Z,15.23
2022-12-22T03:55:17.931Z,13.13
2022-12-22T03:58:20.509Z,13.73
2022-12-22T04:01:23.149Z,12.90
2022-12-22T04:04:27.572Z,12.20
2022-12-22T04:07:31.582Z,15.77
2022-12-22T04:10:51.523Z,13.60
2022-12-22T04:13:54.128Z,15.63
2022-12-22T04:16:56.791Z,16.40
2022-12-22T04:19:59.381Z,13.43
2022-12-22T04:23:04.300Z,11.80
2022-12-22T04:26:06.902Z,13.40
2022-12-22T04:29:09.514Z,14.23
2022-12-22T04:32:12.180Z,13.80
2022-12-22T04:35:14.822Z,13.47
2022-12-22T04:38:18.840Z,13.87
2022-12-22T04:41:21.429Z,13.70
2022-12-22T04:44:24.024Z,14.37
2022-12-22T04:47:26.609Z,15.67
2022-12-22T04:50:29.215Z,16.03
2022-12-22T04:53:33.402Z,14.77
2022-12-22T04:56:36.034Z,15.53
2022-12-22T04:59:38.688Z,17.17
2022-12-22T05:02:41.457Z,15.40
2022-12-22T05:05:44.167Z,12.67
2022-12-22T05:08:48.135Z,14.67
2022-12-22T05:11:50.766Z,17.07
2022-12-22T05:14:53.631Z,14.20
2022-12-22T05:17:57.325Z,13.33
2022-12-22T05:20:59.911Z,20.40
2022-12-22T05:24:04.012Z,15.17
2022-12-22T05:27:07.020Z,14.83
2022-12-22T05:30:10.622Z,13.60
2022-12-22T05:33:13.188Z,15.93
2022-12-22T05:36:16.203Z,18.83
2022-12-22T05:39:20.277Z,15.50
2022-12-22T05:42:36.595Z,16.90
2022-12-22T05:45:39.230Z,15.07
2022-12-22T05:48:41.826Z,15.57
2022-12-22T05:51:44.449Z,16.73
2022-12-22T05:54:48.362Z,16.53
2022-12-22T05:57:50.995Z,16.93
2022-12-22T06:00:57.424Z,17.70
2022-12-22T06:04:00.777Z,18.60
2022-12-22T06:07:03.621Z,16.33
2022-12-22T06:10:12.392Z,16.40
2022-12-22T06:13:15.943Z,17.50
2022-12-22T06:16:18.584Z,16.97
2022-12-22T06:19:21.214Z,19.27
2022-12-22T06:22:23.799Z,18.10
2022-12-22T06:25:27.769Z,22.23
2022-12-22T06:28:30.650Z,17.93
2022-12-22T06:31:33.310Z,15.10
2022-12-22T06:34:35.921Z,17.90
2022-12-22T06:37:38.674Z,17.93
2022-12-22T06:40:42.593Z,15.50
2022-12-22T06:43:44.205Z,17.97
2022-12-22T06:46:46.858Z,14.20
2022-12-22T06:49:49.619Z,16.97
2022-12-22T06:52:52.338Z,15.67
2022-12-22T06:55:56.259Z,20.03
2022-12-22T06:58:58.871Z,17.20
2022-12-22T07:02:01.538Z,14.47
2022-12-22T07:05:04.442Z,16.27
2022-12-22T07:08:09.016Z,21.40
2022-12-22T07:11:13.213Z,17.50
2022-12-22T07:14:15.840Z,16.93
2022-12-22T07:17:18.432Z,15.03
2022-12-22T07:20:20.997Z,18.60
2022-12-22T07:23:23.668Z,16.13
2022-12-22T07:26:27.932Z,14.90
2022-12-22T07:29:30.573Z,21.70
2022-12-22T07:32:33.170Z,19.70
2022-12-22T07:35:35.834Z,17.83
2022-12-22T07:38:41.052Z,17.33
2022-12-22T07:42:03.168Z,17.97
2022-12-22T07:45:06.657Z,17.83
2022-12-22T07:48:24.187Z,15.37
2022-12-22T07:51:26.792Z,15.10
2022-12-22T07:54:30.588Z,16.57
2022-12-22T07:57:35.825Z,16.67
2022-12-22T08:00:38.402Z,18.73
2022-12-22T08:03:40.974Z,16.87
2022-12-22T08:06:43.692Z,20.53
2022-12-22T08:09:46.276Z,19.47
2022-12-22T08:12:50.259Z,15.70
2022-12-22T08:15:52.890Z,16.53
2022-12-22T08:18:55.507Z,14.20
2022-12-22T08:21:58.382Z,18.17
2022-12-22T08:25:00.997Z,17.17
2022-12-22T08:28:05.347Z,14.97
2022-12-22T08:31:08.749Z,16.13
2022-12-22T08:34:15.140Z,17.40
2022-12-22T08:37:21.492Z,19.17
2022-12-22T08:40:28.433Z,22.13
2022-12-22T08:43:33.692Z,16.73
2022-12-22T08:46:36.307Z,17.23
2022-12-22T08:49:38.957Z,16.00
2022-12-22T08:52:41.530Z,15.63
2022-12-22T08:55:52.013Z,14.73
2022-12-22T08:58:55.928Z,16.37
2022-12-22T09:01:58.589Z,13.93
2022-12-22T09:05:01.418Z,14.97
2022-12-22T09:08:04.169Z,15.47
2022-12-22T09:11:06.964Z,15.57
2022-12-22T09:14:11.829Z,16.97
2022-12-22T09:17:14.401Z,21.30
2022-12-22T09:20:17.247Z,17.07
2022-12-22T09:23:19.853Z,18.40
2022-12-22T09:26:24.162Z,19.67
2022-12-22T09:29:28.119Z,17.83
2022-12-22T09:32:30.696Z,16.27
2022-12-22T09:35:33.300Z,18.63
2022-12-22T09:38:35.921Z,19.50
2022-12-22T09:41:45.442Z,17.57
2022-12-22T09:44:51.786Z,15.73
2022-12-22T09:47:56.185Z,17.60
2022-12-22T09:50:59.191Z,20.10
2022-12-22T09:54:03.056Z,18.90
2022-12-22T09:57:12.481Z,19.70
2022-12-22T10:00:20.147Z,17.37
2022-12-22T10:03:34.358Z,19.87
2022-12-22T10:06:43.462Z,17.10
2022-12-22T10:09:51.268Z,18.07
2022-12-22T10:12:56.840Z,18.07
2022-12-22T10:16:00.938Z,20.80
2022-12-22T10:19:11.770Z,19.40
2022-12-22T10:22:26.414Z,19.53
2022-12-22T10:25:52.535Z,22.93
2022-12-22T10:29:00.619Z,21.03
2022-12-22T10:32:12.242Z,20.90
2022-12-22T10:35:14.934Z,22.87
2022-12-22T10:38:22.601Z,24.93
2022-12-22T10:41:28.307Z,26.40
2022-12-22T10:44:33.999Z,29.47
2022-12-22T10:47:38.003Z,29.17
2022-12-22T10:50:46.314Z,31.07
2022-12-22T10:53:52.657Z,31.80
2022-12-22T10:57:04.314Z,30.33
2022-12-22T11:00:24.157Z,30.93
2022-12-22T11:03:32.095Z,32.37
2022-12-22T11:06:34.907Z,32.17
2022-12-22T11:09:37.512Z,30.83
2022-12-22T11:12:55.604Z,30.63
2022-12-22T11:16:04.033Z,31.93
2022-12-22T11:19:25.598Z,29.43
2022-12-22T11:22:38.413Z,32.60
2022-12-22T11:25:52.435Z,29.67
2022-12-22T11:29:15.912Z,28.77
2022-12-22T11:32:35.526Z,28.93
2022-12-22T11:35:51.560Z,26.33
2022-12-22T11:38:59.697Z,24.37
2022-12-22T11:42:15.363Z,28.70
2022-12-22T11:45:39.127Z,26.87
2022-12-22T11:48:59.900Z,25.80
2022-12-22T11:52:14.573Z,23.73
2022-12-22T11:55:30.863Z,24.53
2022-12-22T11:58:49.699Z,23.33
2022-12-22T12:02:14.461Z,26.97
2022-12-22T12:05:35.517Z,22.77
2022-12-22T12:08:56.267Z,22.93
2022-12-22T12:12:06.324Z,21.00
2022-12-22T12:15:21.914Z,23.67
2022-12-22T12:18:47.598Z,20.07
2022-12-22T12:21:53.531Z,23.03
2022-12-22T12:25:03.215Z,22.80
2022-12-22T12:28:19.464Z,25.73
2022-12-22T12:31:26.786Z,24.93
2022-12-22T12:34:33.412Z,23.40
2022-12-22T12:37:39.059Z,25.30
2022-12-22T12:40:51.573Z,26.10
2022-12-22T12:43:55.941Z,25.33
2022-12-22T12:47:22.922Z,24.80
2022-12-22T12:50:33.718Z,24.53
2022-12-22T12:53:36.306Z,22.23
2022-12-22T12:57:23.974Z,22.93
2022-12-22T13:00:49.833Z,23.63
2022-12-22T13:04:03.184Z,20.60
2022-12-22T13:07:06.652Z,19.10
2022-12-22T13:10:19.813Z,19.37
2022-12-22T13:13:47.293Z,21.47
2022-12-22T13:16:49.968Z,22.43
2022-12-22T13:19:52.784Z,18.00
2022-12-22T13:22:57.682Z,20.20
2022-12-22T13:26:03.648Z,19.47
2022-12-22T13:29:19.542Z,19.47
2022-12-22T13:32:26.424Z,18.57
2022-12-22T13:35:38.701Z,18.63
2022-12-22T13:38:45.495Z,19.67
2022-12-22T13:41:51.012Z,16.70
2022-12-22T13:44:55.749Z,21.63
2022-12-22T13:48:00.718Z,20.27
2022-12-22T13:51:06.408Z,19.13
2022-12-22T13:54:17.703Z,22.70
2022-12-22T13:57:22.976Z,25.43
2022-12-22T14:00:29.844Z,24.20
2022-12-22T14:03:59.099Z,23.87
2022-12-22T14:06:55.889Z,20.33
2022-12-22T14:09:59.085Z,22.83
2022-12-22T14:13:07.436Z,19.57
2022-12-22T14:16:15.055Z,21.37
2022-12-22T14:19:19.415Z,19.97
2022-12-22T14:22:25.399Z,19.97
2022-12-22T14:25:33.212Z,16.43
2022-12-22T14:28:43.473Z,17.83
2022-12-22T14:31:55.181Z,17.77
2022-12-22T14:34:57.908Z,19.20
2022-12-22T14:38:20.129Z,15.43
2022-12-22T14:41:46.648Z,18.17
2022-12-22T14:44:50.035Z,19.13
2022-12-22T14:47:55.454Z,17.47
2022-12-22T14:50:58.416Z,20.90
2022-12-22T14:54:03.394Z,18.03
2022-12-22T14:57:15.700Z,17.90
2022-12-22T15:00:31.259Z,21.97
2022-12-22T15:03:37.753Z,21.53
2022-12-22T15:06:42.530Z,15.90
2022-12-22T15:10:14.305Z,19.77
2022-12-22T15:13:13.213Z,25.27
2022-12-22T15:16:18.883Z,24.60
2022-12-22T15:19:23.409Z,21.33
2022-12-22T15:22:26.137Z,23.00
2022-12-22T15:25:28.803Z,20.20
2022-12-22T15:28:31.379Z,24.07
2022-12-22T15:31:34.644Z,23.97
2022-12-22T15:34:38.774Z,21.43
2022-12-22T15:37:41.368Z,22.97
2022-12-22T15:40:44.342Z,26.03
2022-12-22T15:43:57.899Z,24.10
2022-12-22T15:47:01.168Z,34.53
2022-12-22T15:50:06.189Z,30.73
2022-12-22T15:53:13.437Z,33.27
2022-12-22T15:56:21.157Z,29.87
2022-12-22T15:59:26.998Z,36.07
2022-12-22T16:02:29.803Z,28.83
2022-12-22T16:05:34.810Z,33.63
2022-12-22T16:08:39.384Z,32.83
2022-12-22T16:11:41.976Z,31.97
2022-12-22T16:14:50.583Z,30.57
2022-12-22T16:17:53.653Z,27.83
2022-12-22T16:21:04.527Z,30.13
2022-12-22T16:24:08.319Z,29.30
2022-12-22T16:27:12.297Z,35.27
2022-12-22T16:30:19.453Z,32.87
2022-12-22T16:33:22.076Z,29.53
2022-12-22T16:36:25.999Z,33.57
2022-12-22T16:39:28.596Z,27.93
2022-12-22T16:45:52.308Z,26.47
2022-12-22T16:48:57.948Z,31.47
2022-12-22T16:52:01.926Z,32.63
2022-12-22T16:55:07.370Z,31.03
2022-12-22T16:58:13.804Z,32.47
2022-12-22T17:01:23.594Z,25.33
2022-12-22T17:04:30.331Z,29.73
2022-12-22T17:07:34.572Z,27.20
2022-12-22T17:10:37.239Z,30.93
2022-12-22T17:13:40.160Z,36.13
2022-12-22T17:16:42.753Z,26.30
2022-12-22T17:19:45.597Z,27.00
2022-12-22T17:22:53.664Z,24.73
2022-12-22T17:25:56.300Z,26.33
2022-12-22T17:29:00.220Z,23.77
2022-12-22T17:32:02.841Z,28.20
2022-12-22T17:35:06.009Z,26.90
2022-12-22T17:38:14.054Z,29.50
2022-12-22T17:41:17.956Z,26.53
2022-12-22T17:44:22.570Z,32.37
2022-12-22T17:47:32.183Z,22.20
2022-12-22T17:50:35.643Z,22.10
2022-12-22T17:53:41.263Z,22.70
2022-12-22T17:56:43.919Z,28.90
2022-12-22T17:59:46.595Z,23.33
2022-12-22T18:02:49.843Z,21.93
2022-12-22T18:05:52.644Z,20.83
2022-12-22T18:08:57.937Z,26.97
2022-12-22T18:12:00.522Z,22.60
2022-12-22T18:15:03.108Z,23.00
2022-12-22T18:18:13.095Z,24.80
2022-12-22T18:21:17.501Z,26.10
2022-12-22T18:24:21.505Z,21.73
2022-12-22T18:27:24.297Z,26.50
2022-12-22T18:30:29.091Z,23.03
2022-12-22T18:33:31.689Z,21.87
2022-12-22T18:36:34.800Z,23.27
2022-12-22T18:39:39.981Z,25.77
2022-12-22T18:42:42.547Z,23.93
2022-12-22T18:45:45.358Z,22.20
2022-12-22T18:48:48.383Z,22.10
2022-12-22T18:51:51.057Z,22.77
2022-12-22T18:54:55.049Z,22.27
2022-12-22T18:57:59.345Z,26.77
2022-12-22T19:01:03.649Z,26.60
2022-12-22T19:04:06.519Z,23.90
2022-12-22T19:07:13.244Z,30.03
2022-12-22T19:10:19.798Z,25.13
2022-12-22T19:13:29.135Z,21.77
2022-12-22T19:16:31.856Z,20.77
2022-12-22T19:19:34.523Z,21.50
2022-12-22T19:22:37.085Z,19.33
2022-12-22T19:25:42.495Z,22.33
2022-12-22T19:28:45.629Z,21.43
2022-12-22T19:31:48.341Z,25.33
2022-12-22T19:34:51.263Z,23.03
2022-12-22T19:37:54.493Z,22.60
2022-12-22T19:41:02.481Z,20.47
2022-12-22T19:44:06.036Z,24.60
2022-12-22T19:47:17.735Z,20.40
2022-12-22T19:50:23.255Z,23.20
2022-12-22T19:53:26.527Z,25.10
2022-12-22T19:56:30.886Z,21.37
2022-12-22T19:59:39.325Z,24.57
2022-12-22T20:02:43.074Z,28.80
2022-12-22T20:05:45.762Z,26.10
2022-12-22T20:08:48.372Z,24.23
2022-12-22T20:11:52.357Z,28.03
2022-12-22T20:14:55.246Z,20.13
2022-12-22T20:17:58.781Z,19.40
2022-12-22T20:21:03.660Z,25.27
2022-12-22T20:24:07.647Z,22.37
2022-12-22T20:27:18.591Z,18.53
2022-12-22T20:30:24.333Z,22.00
2022-12-22T20:33:28.287Z,20.00
2022-12-22T20:36:32.412Z,23.10
2022-12-22T20:39:34.976Z,23.83
2022-12-22T20:42:38.951Z,25.50
2022-12-22T20:45:42.506Z,22.30
2022-12-22T20:48:47.931Z,17.67
2022-12-22T20:51:50.520Z,17.83
2022-12-22T20:54:53.195Z,23.17
2022-12-22T20:57:57.118Z,22.67
2022-12-22T21:01:02.439Z,23.37
2022-12-22T21:04:05.068Z,23.17
2022-12-22T21:07:07.782Z,20.73
2022-12-22T21:10:17.195Z,25.03
2022-12-22T21:13:21.950Z,27.90
2022-12-22T21:16:27.740Z,20.07
2022-12-22T21:19:30.525Z,23.93
2022-12-22T21:22:33.168Z,24.47
2022-12-22T21:25:35.863Z,21.70
2022-12-22T21:28:40.074Z,23.93
2022-12-22T21:31:42.704Z,21.97
2022-12-22T21:34:45.289Z,25.13
2022-12-22T21:37:50.103Z,24.13
2022-12-22T21:40:52.794Z,31.50
2022-12-22T21:43:56.729Z,23.77
2022-12-22T21:47:00.085Z,20.00
2022-12-22T21:50:04.885Z,25.13
2022-12-22T21:53:07.865Z,22.00
2022-12-22T21:56:18.612Z,23.83
2022-12-22T21:59:23.018Z,22.47
2022-12-22T22:02:25.752Z,22.13
2022-12-22T22:05:35.250Z,20.17
2022-12-22T22:08:37.957Z,24.17
2022-12-22T22:11:55.301Z,19.37
2022-12-22T22:15:00.749Z,23.80
2022-12-22T22:18:07.224Z,26.27
2022-12-22T22:21:11.643Z,29.07
2022-12-22T22:24:14.392Z,22.77
2022-12-22T22:27:16.969Z,24.80
2022-12-22T22:30:22.734Z,22.47
2022-12-22T22:33:25.635Z,22.97
2022-12-22T22:36:28.315Z,26.63
2022-12-22T22:39:30.893Z,22.03
2022-12-22T22:42:33.533Z,22.30
2022-12-22T22:45:40.760Z,26.60
2022-12-22T22:48:43.351Z,26.53
2022-12-22T22:51:48.206Z,23.93
2022-12-22T22:54:50.874Z,28.90
2022-12-22T22:57:54.139Z,27.13
2022-12-22T23:01:05.128Z,24.77
2022-12-22T23:04:08.487Z,24.27
2022-12-22T23:07:11.763Z,26.20
2022-12-22T23:10:14.599Z,30.63
2022-12-22T23:13:17.190Z,30.43
2022-12-22T23:16:21.860Z,28.47
2022-12-22T23:19:24.847Z,24.07
2022-12-22T23:22:27.429Z,25.50
2022-12-22T23:25:30.014Z,27.23
2022-12-22T23:28:32.837Z,26.43
2022-12-22T23:31:37.486Z,23.70
2022-12-22T23:34:40.151Z,27.67
2022-12-22T23:37:42.829Z,27.70
2022-12-22T23:40:54.349Z,25.03
2022-12-22T23:43:57.524Z,26.53
2022-12-22T23:47:01.499Z,23.00
2022-12-22T23:50:04.509Z,24.77
2022-12-22T23:53:07.125Z,30.47
2022-12-22T23:56:09.736Z,23.17
2022-12-22T23:59:12.304Z,23.30
